sensor_id;sensor_type;location;lat;lon;timestamp;P1;durP1;ratioP1;P2;durP2;ratioP2
43487;SDS011;29078;41.932;25.554;2023-04-15T00:01:46;8.65;;;5.32;;
43487;SDS011;29078;41.932;25.554;2023-04-15T00:04:12;7.20;;;3.97;;
43487;SDS011;29078;41.932;25.554;2023-04-15T00:06:37;7.93;;;4.15;;
43487;SDS011;29078;41.932;25.554;2023-04-15T00:09:04;8.63;;;5.10;;
43487;SDS011;29078;41.932;25.554;2023-04-15T00:11:29;6.55;;;4.22;;
43487;SDS011;29078;41.932;25.554;2023-04-15T00:13:55;13.25;;;5.50;;
43487;SDS011;29078;41.932;25.554;2023-04-15T00:16:20;9.63;;;5.63;;
43487;SDS011;29078;41.932;25.554;2023-04-15T00:18:46;9.43;;;5.40;;
43487;SDS011;29078;41.932;25.554;2023-04-15T00:21:11;9.45;;;4.60;;
43487;SDS011;29078;41.932;25.554;2023-04-15T00:23:37;9.63;;;7.35;;
43487;SDS011;29078;41.932;25.554;2023-04-15T00:26:02;8.23;;;5.55;;
43487;SDS011;29078;41.932;25.554;2023-04-15T00:28:27;8.70;;;4.43;;
43487;SDS011;29078;41.932;25.554;2023-04-15T00:30:53;7.90;;;4.95;;
43487;SDS011;29078;41.932;25.554;2023-04-15T00:33:19;10.88;;;5.43;;
43487;SDS011;29078;41.932;25.554;2023-04-15T00:35:44;10.48;;;5.60;;
43487;SDS011;29078;41.932;25.554;2023-04-15T00:38:09;9.88;;;5.57;;
43487;SDS011;29078;41.932;25.554;2023-04-15T00:40:35;13.23;;;5.93;;
43487;SDS011;29078;41.932;25.554;2023-04-15T00:43:01;8.98;;;4.72;;
43487;SDS011;29078;41.932;25.554;2023-04-15T00:45:28;11.73;;;5.10;;
43487;SDS011;29078;41.932;25.554;2023-04-15T00:47:54;9.73;;;4.88;;
43487;SDS011;29078;41.932;25.554;2023-04-15T00:50:20;10.45;;;5.35;;
43487;SDS011;29078;41.932;25.554;2023-04-15T00:52:45;11.70;;;4.60;;
43487;SDS011;29078;41.932;25.554;2023-04-15T00:55:11;9.98;;;4.85;;
43487;SDS011;29078;41.932;25.554;2023-04-15T00:57:36;10.43;;;4.80;;
43487;SDS011;29078;41.932;25.554;2023-04-15T01:00:03;12.73;;;4.55;;
43487;SDS011;29078;41.932;25.554;2023-04-15T01:02:32;11.30;;;4.82;;
43487;SDS011;29078;41.932;25.554;2023-04-15T01:04:58;7.68;;;4.90;;
43487;SDS011;29078;41.932;25.554;2023-04-15T01:07:23;8.90;;;4.63;;
43487;SDS011;29078;41.932;25.554;2023-04-15T01:09:49;10.45;;;4.57;;
43487;SDS011;29078;41.932;25.554;2023-04-15T01:12:14;10.85;;;4.65;;
43487;SDS011;29078;41.932;25.554;2023-04-15T01:14:41;10.80;;;4.72;;
43487;SDS011;29078;41.932;25.554;2023-04-15T01:17:06;9.05;;;4.20;;
43487;SDS011;29078;41.932;25.554;2023-04-15T01:19:32;9.52;;;4.47;;
43487;SDS011;29078;41.932;25.554;2023-04-15T01:21:58;6.30;;;3.25;;
43487;SDS011;29078;41.932;25.554;2023-04-15T01:24:24;7.70;;;3.90;;
43487;SDS011;29078;41.932;25.554;2023-04-15T01:26:52;6.53;;;3.97;;
43487;SDS011;29078;41.932;25.554;2023-04-15T01:29:18;9.93;;;4.20;;
43487;SDS011;29078;41.932;25.554;2023-04-15T01:31:50;6.25;;;3.75;;
43487;SDS011;29078;41.932;25.554;2023-04-15T01:34:16;6.18;;;3.53;;
43487;SDS011;29078;41.932;25.554;2023-04-15T01:36:42;9.65;;;3.58;;
43487;SDS011;29078;41.932;25.554;2023-04-15T01:39:07;6.60;;;3.60;;
43487;SDS011;29078;41.932;25.554;2023-04-15T01:41:33;12.98;;;4.38;;
43487;SDS011;29078;41.932;25.554;2023-04-15T01:43:59;5.03;;;3.75;;
43487;SDS011;29078;41.932;25.554;2023-04-15T01:46:24;9.02;;;4.30;;
43487;SDS011;29078;41.932;25.554;2023-04-15T01:48:50;7.97;;;3.75;;
43487;SDS011;29078;41.932;25.554;2023-04-15T01:51:15;7.38;;;4.90;;
43487;SDS011;29078;41.932;25.554;2023-04-15T01:53:41;8.63;;;5.10;;
43487;SDS011;29078;41.932;25.554;2023-04-15T01:56:07;8.07;;;4.47;;
43487;SDS011;29078;41.932;25.554;2023-04-15T01:58:32;8.07;;;4.10;;
43487;SDS011;29078;41.932;25.554;2023-04-15T02:00:57;7.63;;;4.43;;
43487;SDS011;29078;41.932;25.554;2023-04-15T02:03:27;7.70;;;4.07;;
43487;SDS011;29078;41.932;25.554;2023-04-15T02:05:53;7.38;;;4.68;;
43487;SDS011;29078;41.932;25.554;2023-04-15T02:08:19;9.43;;;6.82;;
43487;SDS011;29078;41.932;25.554;2023-04-15T02:10:44;10.40;;;7.22;;
43487;SDS011;29078;41.932;25.554;2023-04-15T02:13:09;10.07;;;6.32;;
43487;SDS011;29078;41.932;25.554;2023-04-15T02:15:35;11.35;;;6.63;;
43487;SDS011;29078;41.932;25.554;2023-04-15T02:18:00;10.73;;;5.68;;
43487;SDS011;29078;41.932;25.554;2023-04-15T02:20:26;10.30;;;5.55;;
43487;SDS011;29078;41.932;25.554;2023-04-15T02:22:52;11.82;;;6.20;;
43487;SDS011;29078;41.932;25.554;2023-04-15T02:25:17;11.45;;;6.60;;
43487;SDS011;29078;41.932;25.554;2023-04-15T02:27:44;8.25;;;5.80;;
43487;SDS011;29078;41.932;25.554;2023-04-15T02:30:09;9.05;;;6.03;;
43487;SDS011;29078;41.932;25.554;2023-04-15T02:32:35;11.07;;;6.07;;
43487;SDS011;29078;41.932;25.554;2023-04-15T02:35:05;13.07;;;8.10;;
43487;SDS011;29078;41.932;25.554;2023-04-15T02:37:34;10.60;;;7.43;;
43487;SDS011;29078;41.932;25.554;2023-04-15T02:40:05;13.75;;;8.27;;
43487;SDS011;29078;41.932;25.554;2023-04-15T02:42:32;9.73;;;5.47;;
43487;SDS011;29078;41.932;25.554;2023-04-15T02:44:57;14.20;;;7.18;;
43487;SDS011;29078;41.932;25.554;2023-04-15T02:47:23;12.50;;;6.82;;
43487;SDS011;29078;41.932;25.554;2023-04-15T02:49:48;10.93;;;6.65;;
43487;SDS011;29078;41.932;25.554;2023-04-15T02:52:14;14.88;;;7.32;;
43487;SDS011;29078;41.932;25.554;2023-04-15T02:54:39;13.40;;;8.07;;
43487;SDS011;29078;41.932;25.554;2023-04-15T02:57:05;10.93;;;6.30;;
43487;SDS011;29078;41.932;25.554;2023-04-15T02:59:30;11.40;;;6.53;;
43487;SDS011;29078;41.932;25.554;2023-04-15T03:01:56;11.40;;;6.50;;
43487;SDS011;29078;41.932;25.554;2023-04-15T03:04:24;12.60;;;6.97;;
43487;SDS011;29078;41.932;25.554;2023-04-15T03:06:50;10.55;;;5.90;;
43487;SDS011;29078;41.932;25.554;2023-04-15T03:09:16;10.60;;;6.30;;
43487;SDS011;29078;41.932;25.554;2023-04-15T03:11:41;14.45;;;6.22;;
43487;SDS011;29078;41.932;25.554;2023-04-15T03:14:06;8.93;;;5.50;;
43487;SDS011;29078;41.932;25.554;2023-04-15T03:16:32;13.88;;;5.88;;
43487;SDS011;29078;41.932;25.554;2023-04-15T03:18:57;10.27;;;5.60;;
43487;SDS011;29078;41.932;25.554;2023-04-15T03:21:23;9.20;;;5.88;;
43487;SDS011;29078;41.932;25.554;2023-04-15T03:23:48;9.35;;;5.05;;
43487;SDS011;29078;41.932;25.554;2023-04-15T03:26:27;10.50;;;5.93;;
43487;SDS011;29078;41.932;25.554;2023-04-15T03:31:21;9.45;;;5.53;;
43487;SDS011;29078;41.932;25.554;2023-04-15T03:33:47;10.30;;;6.18;;
43487;SDS011;29078;41.932;25.554;2023-04-15T03:36:12;11.18;;;5.88;;
43487;SDS011;29078;41.932;25.554;2023-04-15T03:38:38;10.25;;;5.80;;
43487;SDS011;29078;41.932;25.554;2023-04-15T03:41:03;11.93;;;5.40;;
43487;SDS011;29078;41.932;25.554;2023-04-15T03:43:29;8.27;;;5.25;;
43487;SDS011;29078;41.932;25.554;2023-04-15T03:45:54;11.15;;;5.15;;
43487;SDS011;29078;41.932;25.554;2023-04-15T03:48:20;10.35;;;5.80;;
43487;SDS011;29078;41.932;25.554;2023-04-15T03:50:45;11.75;;;6.80;;
43487;SDS011;29078;41.932;25.554;2023-04-15T03:53:11;10.90;;;6.53;;
43487;SDS011;29078;41.932;25.554;2023-04-15T03:55:36;9.55;;;5.75;;
43487;SDS011;29078;41.932;25.554;2023-04-15T03:58:02;10.00;;;5.65;;
43487;SDS011;29078;41.932;25.554;2023-04-15T04:00:27;11.80;;;6.63;;
43487;SDS011;29078;41.932;25.554;2023-04-15T04:02:53;14.60;;;6.20;;
43487;SDS011;29078;41.932;25.554;2023-04-15T04:05:18;11.25;;;6.47;;
43487;SDS011;29078;41.932;25.554;2023-04-15T04:07:43;13.32;;;7.38;;
43487;SDS011;29078;41.932;25.554;2023-04-15T04:10:09;12.90;;;8.07;;
43487;SDS011;29078;41.932;25.554;2023-04-15T04:12:35;12.88;;;7.57;;
43487;SDS011;29078;41.932;25.554;2023-04-15T04:15:00;13.32;;;7.80;;
43487;SDS011;29078;41.932;25.554;2023-04-15T04:17:26;12.10;;;7.00;;
43487;SDS011;29078;41.932;25.554;2023-04-15T04:19:51;10.55;;;6.97;;
43487;SDS011;29078;41.932;25.554;2023-04-15T04:22:17;13.05;;;6.47;;
43487;SDS011;29078;41.932;25.554;2023-04-15T04:24:46;10.05;;;6.18;;
43487;SDS011;29078;41.932;25.554;2023-04-15T04:27:12;9.13;;;6.03;;
43487;SDS011;29078;41.932;25.554;2023-04-15T04:29:37;9.88;;;6.38;;
43487;SDS011;29078;41.932;25.554;2023-04-15T04:32:02;9.65;;;5.70;;
43487;SDS011;29078;41.932;25.554;2023-04-15T04:34:28;8.90;;;4.72;;
43487;SDS011;29078;41.932;25.554;2023-04-15T04:36:53;10.40;;;5.13;;
43487;SDS011;29078;41.932;25.554;2023-04-15T04:39:19;9.00;;;5.07;;
43487;SDS011;29078;41.932;25.554;2023-04-15T04:41:44;10.90;;;4.38;;
43487;SDS011;29078;41.932;25.554;2023-04-15T04:44:10;9.77;;;4.55;;
43487;SDS011;29078;41.932;25.554;2023-04-15T04:46:35;6.90;;;4.97;;
43487;SDS011;29078;41.932;25.554;2023-04-15T04:49:00;9.18;;;4.82;;
43487;SDS011;29078;41.932;25.554;2023-04-15T04:51:26;5.93;;;4.22;;
43487;SDS011;29078;41.932;25.554;2023-04-15T04:53:52;6.95;;;3.58;;
43487;SDS011;29078;41.932;25.554;2023-04-15T04:56:18;8.90;;;4.32;;
43487;SDS011;29078;41.932;25.554;2023-04-15T04:58:43;8.43;;;4.45;;
43487;SDS011;29078;41.932;25.554;2023-04-15T05:01:09;10.02;;;4.82;;
43487;SDS011;29078;41.932;25.554;2023-04-15T05:03:34;7.20;;;5.00;;
43487;SDS011;29078;41.932;25.554;2023-04-15T05:06:00;9.43;;;5.35;;
43487;SDS011;29078;41.932;25.554;2023-04-15T05:08:30;8.60;;;4.75;;
43487;SDS011;29078;41.932;25.554;2023-04-15T05:10:55;10.57;;;5.20;;
43487;SDS011;29078;41.932;25.554;2023-04-15T05:13:20;8.52;;;5.22;;
43487;SDS011;29078;41.932;25.554;2023-04-15T05:15:46;7.78;;;4.57;;
43487;SDS011;29078;41.932;25.554;2023-04-15T05:18:11;8.05;;;5.22;;
43487;SDS011;29078;41.932;25.554;2023-04-15T05:20:37;7.63;;;4.80;;
43487;SDS011;29078;41.932;25.554;2023-04-15T05:23:03;8.45;;;5.05;;
43487;SDS011;29078;41.932;25.554;2023-04-15T05:25:28;5.90;;;4.95;;
43487;SDS011;29078;41.932;25.554;2023-04-15T05:27:53;9.02;;;5.13;;
43487;SDS011;29078;41.932;25.554;2023-04-15T05:30:19;8.77;;;5.10;;
43487;SDS011;29078;41.932;25.554;2023-04-15T05:32:45;7.50;;;4.70;;
43487;SDS011;29078;41.932;25.554;2023-04-15T05:35:10;8.27;;;4.72;;
43487;SDS011;29078;41.932;25.554;2023-04-15T05:37:36;11.55;;;5.55;;
43487;SDS011;29078;41.932;25.554;2023-04-15T05:40:01;9.82;;;5.40;;
43487;SDS011;29078;41.932;25.554;2023-04-15T05:42:28;8.85;;;4.50;;
43487;SDS011;29078;41.932;25.554;2023-04-15T05:44:53;10.43;;;4.72;;
43487;SDS011;29078;41.932;25.554;2023-04-15T05:47:19;8.13;;;3.95;;
43487;SDS011;29078;41.932;25.554;2023-04-15T05:49:44;8.02;;;3.78;;
43487;SDS011;29078;41.932;25.554;2023-04-15T05:52:09;8.55;;;3.95;;
43487;SDS011;29078;41.932;25.554;2023-04-15T05:54:35;7.05;;;4.00;;
43487;SDS011;29078;41.932;25.554;2023-04-15T05:57:01;6.93;;;3.35;;
43487;SDS011;29078;41.932;25.554;2023-04-15T05:59:26;6.65;;;3.42;;
43487;SDS011;29078;41.932;25.554;2023-04-15T06:01:52;6.30;;;3.03;;
43487;SDS011;29078;41.932;25.554;2023-04-15T06:04:18;5.10;;;3.30;;
43487;SDS011;29078;41.932;25.554;2023-04-15T06:06:43;7.53;;;3.60;;
43487;SDS011;29078;41.932;25.554;2023-04-15T06:09:09;4.93;;;3.00;;
43487;SDS011;29078;41.932;25.554;2023-04-15T06:11:34;5.20;;;2.88;;
43487;SDS011;29078;41.932;25.554;2023-04-15T06:14:00;4.18;;;2.40;;
43487;SDS011;29078;41.932;25.554;2023-04-15T06:16:25;8.52;;;3.35;;
43487;SDS011;29078;41.932;25.554;2023-04-15T06:18:51;7.68;;;2.80;;
43487;SDS011;29078;41.932;25.554;2023-04-15T06:21:16;7.68;;;3.40;;
43487;SDS011;29078;41.932;25.554;2023-04-15T06:23:42;5.05;;;2.83;;
43487;SDS011;29078;41.932;25.554;2023-04-15T06:26:07;4.25;;;2.72;;
43487;SDS011;29078;41.932;25.554;2023-04-15T06:28:32;5.75;;;3.03;;
43487;SDS011;29078;41.932;25.554;2023-04-15T06:30:58;6.95;;;2.75;;
43487;SDS011;29078;41.932;25.554;2023-04-15T06:33:23;6.75;;;2.80;;
43487;SDS011;29078;41.932;25.554;2023-04-15T06:35:49;6.03;;;2.70;;
43487;SDS011;29078;41.932;25.554;2023-04-15T06:38:15;7.97;;;2.75;;
43487;SDS011;29078;41.932;25.554;2023-04-15T06:40:40;7.25;;;2.50;;
43487;SDS011;29078;41.932;25.554;2023-04-15T06:43:06;5.00;;;2.40;;
43487;SDS011;29078;41.932;25.554;2023-04-15T06:45:32;6.57;;;2.08;;
43487;SDS011;29078;41.932;25.554;2023-04-15T06:47:57;3.95;;;2.17;;
43487;SDS011;29078;41.932;25.554;2023-04-15T06:50:22;7.30;;;2.50;;
43487;SDS011;29078;41.932;25.554;2023-04-15T06:52:48;7.20;;;2.38;;
43487;SDS011;29078;41.932;25.554;2023-04-15T06:55:13;4.43;;;2.60;;
43487;SDS011;29078;41.932;25.554;2023-04-15T06:57:39;4.43;;;2.30;;
43487;SDS011;29078;41.932;25.554;2023-04-15T07:00:05;4.72;;;2.70;;
43487;SDS011;29078;41.932;25.554;2023-04-15T07:02:31;6.05;;;2.38;;
43487;SDS011;29078;41.932;25.554;2023-04-15T07:04:57;6.13;;;3.40;;
43487;SDS011;29078;41.932;25.554;2023-04-15T07:07:22;8.25;;;2.50;;
43487;SDS011;29078;41.932;25.554;2023-04-15T07:09:48;7.05;;;2.97;;
43487;SDS011;29078;41.932;25.554;2023-04-15T07:12:13;2.88;;;1.85;;
43487;SDS011;29078;41.932;25.554;2023-04-15T07:14:39;3.78;;;2.10;;
43487;SDS011;29078;41.932;25.554;2023-04-15T07:17:04;4.32;;;1.95;;
43487;SDS011;29078;41.932;25.554;2023-04-15T07:19:30;4.57;;;1.73;;
43487;SDS011;29078;41.932;25.554;2023-04-15T07:21:56;4.85;;;2.08;;
43487;SDS011;29078;41.932;25.554;2023-04-15T07:24:21;5.40;;;2.15;;
43487;SDS011;29078;41.932;25.554;2023-04-15T07:26:50;4.78;;;2.22;;
43487;SDS011;29078;41.932;25.554;2023-04-15T07:29:16;6.40;;;2.47;;
43487;SDS011;29078;41.932;25.554;2023-04-15T07:31:41;6.93;;;2.88;;
43487;SDS011;29078;41.932;25.554;2023-04-15T07:34:07;10.20;;;2.50;;
43487;SDS011;29078;41.932;25.554;2023-04-15T07:36:32;7.00;;;1.98;;
43487;SDS011;29078;41.932;25.554;2023-04-15T07:38:58;5.10;;;2.40;;
43487;SDS011;29078;41.932;25.554;2023-04-15T07:41:26;4.15;;;2.33;;
43487;SDS011;29078;41.932;25.554;2023-04-15T07:43:51;5.47;;;2.17;;
43487;SDS011;29078;41.932;25.554;2023-04-15T07:46:16;4.72;;;2.63;;
43487;SDS011;29078;41.932;25.554;2023-04-15T07:48:42;2.60;;;1.65;;
43487;SDS011;29078;41.932;25.554;2023-04-15T07:51:07;4.13;;;1.90;;
43487;SDS011;29078;41.932;25.554;2023-04-15T07:53:34;3.53;;;2.00;;
43487;SDS011;29078;41.932;25.554;2023-04-15T07:56:00;6.68;;;2.10;;
43487;SDS011;29078;41.932;25.554;2023-04-15T07:58:25;6.10;;;2.55;;
43487;SDS011;29078;41.932;25.554;2023-04-15T08:00:51;4.60;;;1.98;;
43487;SDS011;29078;41.932;25.554;2023-04-15T08:03:16;4.90;;;2.08;;
43487;SDS011;29078;41.932;25.554;2023-04-15T08:05:42;4.82;;;1.92;;
43487;SDS011;29078;41.932;25.554;2023-04-15T08:08:07;4.30;;;1.83;;
43487;SDS011;29078;41.932;25.554;2023-04-15T08:10:33;3.38;;;2.03;;
43487;SDS011;29078;41.932;25.554;2023-04-15T08:12:58;5.10;;;2.08;;
43487;SDS011;29078;41.932;25.554;2023-04-15T08:15:24;6.40;;;2.50;;
43487;SDS011;29078;41.932;25.554;2023-04-15T08:17:50;5.85;;;2.30;;
43487;SDS011;29078;41.932;25.554;2023-04-15T08:20:16;4.57;;;1.58;;
43487;SDS011;29078;41.932;25.554;2023-04-15T08:22:41;5.28;;;2.10;;
43487;SDS011;29078;41.932;25.554;2023-04-15T08:25:07;5.80;;;2.78;;
43487;SDS011;29078;41.932;25.554;2023-04-15T08:27:33;4.25;;;2.20;;
43487;SDS011;29078;41.932;25.554;2023-04-15T08:29:58;4.97;;;1.88;;
43487;SDS011;29078;41.932;25.554;2023-04-15T08:32:24;4.88;;;1.75;;
43487;SDS011;29078;41.932;25.554;2023-04-15T08:34:50;3.53;;;2.00;;
43487;SDS011;29078;41.932;25.554;2023-04-15T08:37:16;7.82;;;2.25;;
43487;SDS011;29078;41.932;25.554;2023-04-15T08:39:41;4.65;;;2.25;;
43487;SDS011;29078;41.932;25.554;2023-04-15T08:42:10;5.10;;;1.98;;
43487;SDS011;29078;41.932;25.554;2023-04-15T08:44:40;4.50;;;2.20;;
43487;SDS011;29078;41.932;25.554;2023-04-15T08:47:07;3.85;;;2.00;;
43487;SDS011;29078;41.932;25.554;2023-04-15T08:49:35;5.25;;;2.10;;
43487;SDS011;29078;41.932;25.554;2023-04-15T08:54:30;5.82;;;2.47;;
43487;SDS011;29078;41.932;25.554;2023-04-15T08:56:56;5.78;;;3.13;;
43487;SDS011;29078;41.932;25.554;2023-04-15T08:59:22;5.55;;;2.42;;
43487;SDS011;29078;41.932;25.554;2023-04-15T09:01:48;6.75;;;3.05;;
43487;SDS011;29078;41.932;25.554;2023-04-15T09:04:17;5.10;;;2.42;;
43487;SDS011;29078;41.932;25.554;2023-04-15T09:06:43;4.03;;;2.25;;
43487;SDS011;29078;41.932;25.554;2023-04-15T09:09:08;4.88;;;2.25;;
43487;SDS011;29078;41.932;25.554;2023-04-15T09:11:34;5.43;;;2.40;;
43487;SDS011;29078;41.932;25.554;2023-04-15T09:14:00;3.72;;;1.92;;
43487;SDS011;29078;41.932;25.554;2023-04-15T09:16:26;3.42;;;1.85;;
43487;SDS011;29078;41.932;25.554;2023-04-15T09:18:52;4.85;;;1.70;;
43487;SDS011;29078;41.932;25.554;2023-04-15T09:21:17;5.38;;;1.80;;
43487;SDS011;29078;41.932;25.554;2023-04-15T09:23:53;3.70;;;2.15;;
43487;SDS011;29078;41.932;25.554;2023-04-15T09:26:32;5.47;;;1.67;;
43487;SDS011;29078;41.932;25.554;2023-04-15T09:29:06;4.40;;;1.95;;
43487;SDS011;29078;41.932;25.554;2023-04-15T09:31:33;4.93;;;1.80;;
43487;SDS011;29078;41.932;25.554;2023-04-15T09:33:59;5.53;;;2.08;;
43487;SDS011;29078;41.932;25.554;2023-04-15T09:36:25;4.55;;;2.22;;
43487;SDS011;29078;41.932;25.554;2023-04-15T09:38:57;4.25;;;1.80;;
43487;SDS011;29078;41.932;25.554;2023-04-15T09:41:24;4.70;;;2.33;;
43487;SDS011;29078;41.932;25.554;2023-04-15T09:43:50;6.75;;;2.00;;
43487;SDS011;29078;41.932;25.554;2023-04-15T09:46:16;5.38;;;2.22;;
43487;SDS011;29078;41.932;25.554;2023-04-15T09:48:41;5.05;;;1.75;;
43487;SDS011;29078;41.932;25.554;2023-04-15T09:51:07;3.92;;;1.73;;
43487;SDS011;29078;41.932;25.554;2023-04-15T09:53:34;4.53;;;2.22;;
43487;SDS011;29078;41.932;25.554;2023-04-15T09:56:00;4.80;;;2.15;;
43487;SDS011;29078;41.932;25.554;2023-04-15T09:58:30;5.30;;;2.20;;
43487;SDS011;29078;41.932;25.554;2023-04-15T10:00:58;6.57;;;2.50;;
43487;SDS011;29078;41.932;25.554;2023-04-15T10:03:29;3.88;;;1.77;;
43487;SDS011;29078;41.932;25.554;2023-04-15T10:05:56;5.47;;;2.38;;
43487;SDS011;29078;41.932;25.554;2023-04-15T10:08:23;3.88;;;1.48;;
43487;SDS011;29078;41.932;25.554;2023-04-15T10:10:52;5.57;;;2.10;;
43487;SDS011;29078;41.932;25.554;2023-04-15T10:13:18;5.50;;;1.75;;
43487;SDS011;29078;41.932;25.554;2023-04-15T10:15:50;3.00;;;1.48;;
43487;SDS011;29078;41.932;25.554;2023-04-15T10:18:22;5.28;;;1.75;;
43487;SDS011;29078;41.932;25.554;2023-04-15T10:20:50;5.43;;;2.20;;
43487;SDS011;29078;41.932;25.554;2023-04-15T10:23:16;6.15;;;2.25;;
43487;SDS011;29078;41.932;25.554;2023-04-15T10:25:43;4.80;;;1.65;;
43487;SDS011;29078;41.932;25.554;2023-04-15T10:28:10;4.22;;;1.58;;
43487;SDS011;29078;41.932;25.554;2023-04-15T10:30:35;3.45;;;1.60;;
43487;SDS011;29078;41.932;25.554;2023-04-15T10:33:02;3.30;;;1.60;;
43487;SDS011;29078;41.932;25.554;2023-04-15T10:35:30;4.35;;;2.03;;
43487;SDS011;29078;41.932;25.554;2023-04-15T10:37:56;3.55;;;1.42;;
43487;SDS011;29078;41.932;25.554;2023-04-15T10:40:22;3.90;;;1.92;;
43487;SDS011;29078;41.932;25.554;2023-04-15T10:42:55;7.90;;;2.90;;
43487;SDS011;29078;41.932;25.554;2023-04-15T10:45:21;4.63;;;1.90;;
43487;SDS011;29078;41.932;25.554;2023-04-15T10:47:54;4.13;;;2.22;;
43487;SDS011;29078;41.932;25.554;2023-04-15T10:50:20;4.55;;;1.85;;
43487;SDS011;29078;41.932;25.554;2023-04-15T10:52:49;4.63;;;2.22;;
43487;SDS011;29078;41.932;25.554;2023-04-15T10:55:19;5.20;;;2.38;;
43487;SDS011;29078;41.932;25.554;2023-04-15T10:57:46;5.32;;;2.15;;
43487;SDS011;29078;41.932;25.554;2023-04-15T11:00:17;4.22;;;2.10;;
43487;SDS011;29078;41.932;25.554;2023-04-15T11:02:54;4.60;;;2.20;;
43487;SDS011;29078;41.932;25.554;2023-04-15T11:05:21;4.35;;;1.77;;
43487;SDS011;29078;41.932;25.554;2023-04-15T11:08:07;4.88;;;1.85;;
43487;SDS011;29078;41.932;25.554;2023-04-15T11:15:32;5.72;;;1.77;;
43487;SDS011;29078;41.932;25.554;2023-04-15T11:20:47;5.68;;;1.73;;
43487;SDS011;29078;41.932;25.554;2023-04-15T11:23:18;5.90;;;2.17;;
43487;SDS011;29078;41.932;25.554;2023-04-15T11:25:51;6.75;;;2.10;;
43487;SDS011;29078;41.932;25.554;2023-04-15T11:28:19;8.10;;;2.17;;
43487;SDS011;29078;41.932;25.554;2023-04-15T11:30:44;6.88;;;2.17;;
43487;SDS011;29078;41.932;25.554;2023-04-15T11:33:10;2.72;;;1.77;;
43487;SDS011;29078;41.932;25.554;2023-04-15T11:35:38;6.15;;;2.00;;
43487;SDS011;29078;41.932;25.554;2023-04-15T11:38:12;6.32;;;2.15;;
43487;SDS011;29078;41.932;25.554;2023-04-15T11:40:38;5.85;;;1.95;;
43487;SDS011;29078;41.932;25.554;2023-04-15T11:43:07;4.93;;;1.67;;
43487;SDS011;29078;41.932;25.554;2023-04-15T11:45:33;3.88;;;2.10;;
43487;SDS011;29078;41.932;25.554;2023-04-15T11:48:04;4.05;;;1.90;;
43487;SDS011;29078;41.932;25.554;2023-04-15T11:50:30;6.43;;;2.25;;
43487;SDS011;29078;41.932;25.554;2023-04-15T11:52:56;3.83;;;1.80;;
43487;SDS011;29078;41.932;25.554;2023-04-15T11:55:24;9.02;;;2.15;;
43487;SDS011;29078;41.932;25.554;2023-04-15T11:58:04;8.00;;;1.80;;
43487;SDS011;29078;41.932;25.554;2023-04-15T12:00:37;3.85;;;1.80;;
43487;SDS011;29078;41.932;25.554;2023-04-15T12:03:38;5.47;;;1.45;;
43487;SDS011;29078;41.932;25.554;2023-04-15T12:08:48;5.32;;;1.70;;
43487;SDS011;29078;41.932;25.554;2023-04-15T12:11:34;4.80;;;1.55;;
43487;SDS011;29078;41.932;25.554;2023-04-15T12:14:05;4.60;;;1.77;;
43487;SDS011;29078;41.932;25.554;2023-04-15T12:16:49;2.28;;;1.10;;
43487;SDS011;29078;41.932;25.554;2023-04-15T12:19:22;4.50;;;1.27;;
43487;SDS011;29078;41.932;25.554;2023-04-15T12:21:50;2.13;;;1.58;;
43487;SDS011;29078;41.932;25.554;2023-04-15T12:24:19;3.90;;;1.30;;
43487;SDS011;29078;41.932;25.554;2023-04-15T12:26:50;4.53;;;1.58;;
43487;SDS011;29078;41.932;25.554;2023-04-15T12:29:17;2.10;;;1.10;;
43487;SDS011;29078;41.932;25.554;2023-04-15T12:31:50;3.90;;;1.75;;
43487;SDS011;29078;41.932;25.554;2023-04-15T12:34:27;3.45;;;1.48;;
43487;SDS011;29078;41.932;25.554;2023-04-15T12:36:54;3.10;;;1.35;;
43487;SDS011;29078;41.932;25.554;2023-04-15T12:39:31;3.15;;;1.15;;
43487;SDS011;29078;41.932;25.554;2023-04-15T12:42:00;2.83;;;0.90;;
43487;SDS011;29078;41.932;25.554;2023-04-15T12:44:25;4.03;;;1.00;;
43487;SDS011;29078;41.932;25.554;2023-04-15T12:46:52;4.53;;;1.73;;
43487;SDS011;29078;41.932;25.554;2023-04-15T12:49:17;4.07;;;1.52;;
43487;SDS011;29078;41.932;25.554;2023-04-15T12:51:49;9.02;;;2.08;;
43487;SDS011;29078;41.932;25.554;2023-04-15T12:54:17;7.80;;;1.85;;
43487;SDS011;29078;41.932;25.554;2023-04-15T12:56:43;3.20;;;1.38;;
43487;SDS011;29078;41.932;25.554;2023-04-15T12:59:10;5.43;;;1.77;;
43487;SDS011;29078;41.932;25.554;2023-04-15T13:01:35;4.13;;;1.50;;
43487;SDS011;29078;41.932;25.554;2023-04-15T13:04:01;4.93;;;1.45;;
43487;SDS011;29078;41.932;25.554;2023-04-15T13:06:26;4.65;;;1.83;;
43487;SDS011;29078;41.932;25.554;2023-04-15T13:08:53;4.30;;;1.35;;
43487;SDS011;29078;41.932;25.554;2023-04-15T13:11:19;6.40;;;2.03;;
43487;SDS011;29078;41.932;25.554;2023-04-15T13:13:45;6.18;;;1.73;;
43487;SDS011;29078;41.932;25.554;2023-04-15T13:16:10;9.52;;;2.42;;
43487;SDS011;29078;41.932;25.554;2023-04-15T13:18:36;4.47;;;1.70;;
43487;SDS011;29078;41.932;25.554;2023-04-15T13:21:01;3.88;;;1.83;;
43487;SDS011;29078;41.932;25.554;2023-04-15T13:23:27;4.50;;;2.25;;
43487;SDS011;29078;41.932;25.554;2023-04-15T13:25:53;6.22;;;1.95;;
43487;SDS011;29078;41.932;25.554;2023-04-15T13:28:18;5.40;;;1.85;;
43487;SDS011;29078;41.932;25.554;2023-04-15T13:30:44;4.40;;;2.20;;
43487;SDS011;29078;41.932;25.554;2023-04-15T13:33:10;5.88;;;1.95;;
43487;SDS011;29078;41.932;25.554;2023-04-15T13:35:36;4.47;;;1.70;;
43487;SDS011;29078;41.932;25.554;2023-04-15T13:38:01;7.55;;;2.42;;
43487;SDS011;29078;41.932;25.554;2023-04-15T13:40:26;4.30;;;2.08;;
43487;SDS011;29078;41.932;25.554;2023-04-15T13:42:52;4.07;;;1.73;;
43487;SDS011;29078;41.932;25.554;2023-04-15T13:45:17;7.15;;;1.40;;
43487;SDS011;29078;41.932;25.554;2023-04-15T13:47:43;3.95;;;1.48;;
43487;SDS011;29078;41.932;25.554;2023-04-15T13:50:09;4.60;;;1.40;;
43487;SDS011;29078;41.932;25.554;2023-04-15T13:52:35;3.83;;;1.38;;
43487;SDS011;29078;41.932;25.554;2023-04-15T13:55:01;3.65;;;1.60;;
43487;SDS011;29078;41.932;25.554;2023-04-15T13:57:27;3.42;;;1.50;;
43487;SDS011;29078;41.932;25.554;2023-04-15T13:59:53;3.90;;;1.73;;
43487;SDS011;29078;41.932;25.554;2023-04-15T14:02:20;4.60;;;1.80;;
43487;SDS011;29078;41.932;25.554;2023-04-15T14:04:47;4.40;;;1.50;;
43487;SDS011;29078;41.932;25.554;2023-04-15T14:07:12;7.40;;;1.83;;
43487;SDS011;29078;41.932;25.554;2023-04-15T14:09:38;4.80;;;1.48;;
43487;SDS011;29078;41.932;25.554;2023-04-15T14:12:03;3.22;;;1.58;;
43487;SDS011;29078;41.932;25.554;2023-04-15T14:14:29;3.85;;;1.52;;
43487;SDS011;29078;41.932;25.554;2023-04-15T14:16:55;3.90;;;1.90;;
43487;SDS011;29078;41.932;25.554;2023-04-15T14:19:21;3.63;;;1.95;;
43487;SDS011;29078;41.932;25.554;2023-04-15T14:21:47;2.67;;;1.42;;
43487;SDS011;29078;41.932;25.554;2023-04-15T14:24:12;3.63;;;1.38;;
43487;SDS011;29078;41.932;25.554;2023-04-15T14:26:37;4.15;;;1.52;;
43487;SDS011;29078;41.932;25.554;2023-04-15T14:29:03;3.65;;;1.58;;
43487;SDS011;29078;41.932;25.554;2023-04-15T14:31:28;2.80;;;1.17;;
43487;SDS011;29078;41.932;25.554;2023-04-15T14:33:54;3.95;;;1.20;;
43487;SDS011;29078;41.932;25.554;2023-04-15T14:36:19;4.40;;;1.52;;
43487;SDS011;29078;41.932;25.554;2023-04-15T14:38:46;5.75;;;2.00;;
43487;SDS011;29078;41.932;25.554;2023-04-15T14:41:11;4.93;;;1.30;;
43487;SDS011;29078;41.932;25.554;2023-04-15T14:43:37;2.67;;;1.13;;